Aérodrome :
LOGIN :

S'inscrire | Disclaimer

   EN    FR    IT 

 










Légende :    VFR   VFR Marginal   IFR   IFR Intensif   IFR Très Intensif
Visi : 
Plafond : 
>= 8 km
>= 3000ft
5 à 8 km
1000 à 3000 ft
1500m à 5 km
500 à 1000 ft
800 à 1500m
200 à 500 ft
< 800m
< 200 ft
Symboles :   Orages  Brouillard  Fortes neiges  Fortes précipitations  Vent > 20 kt
SIGMETs :   Divers  Orages  Givrage  Turbulence  Onde Orograph.  Cendres Volcan.







- Altitude de l'aérodrome : 203 ft
- Code IATA : XMJ
- Voir les cartes d'approche


LFBM - Mont-De-Marsan

DERNIER METAR :
  • 231600Z AUTO 26010KT 9999 BKN023 OVC028 13/08 Q1015 NOSIG

METARs EXPIRÉS :
  • 231530Z AUTO 28012KT 9999 OVC024 14/08 Q1015 NOSIG
  • 231500Z AUTO 27009KT 9999 BKN025 14/08 Q1015 NOSIG
  • 231430Z AUTO 27010KT 230V290 9999 BKN025 15/09 Q1015 NOSIG
  • 231400Z AUTO 27010KT 240V300 9999 BKN024 BKN220 15/09 Q1015
  • 231330Z AUTO 29008KT 240V330 9999 BKN021 BKN120 15/09 Q1015 NOSIG
  • 231300Z AUTO 27012KT 250V310 9999 BKN018 BKN100 BKN200 14/09 Q1015 NOSIG

TAF TAF LFBM
Valide du 23 à 15h jusqu'au 24 à 15h UTC


231400Z 2315/2415 25008KT 9999 BKN018
BECMG 2318/2320 BKN014
BECMG 2401/2403 BKN010
TEMPO 2403/2406 4000 RA BKN005 BKN010
BECMG 2407/2409 CAVOK
PROB30
TEMPO 2412/2415 SCT030TCU
Pas de NOTAMs connus pour ce terrain.



MET'MAP, la Météo Aéronautique d'un coup d'oeil ! - Copyright ORBIFLY Décembre 2007 - Disclaimer

ORBIFLY MET'MAP TEAM :

Programmation & Développement : Alexandra Zaïnal
Conception & Développement : Baudouin d'Aumeries
Co-Programmation & Développement : Marc-Olivier Méhu
Soutien technique & logistique : Manuel Goepfert

Contact : metmap@orbifly.com




SOURCES & CREDITS :

   NOAA